createdAt,value
2018-06-18T00:00:56.482Z,5.67
2018-06-18T00:03:25.391Z,6.30
2018-06-18T00:05:54.307Z,6.33
2018-06-18T00:08:23.259Z,6.33
2018-06-18T00:10:52.208Z,6.13
2018-06-18T00:13:21.092Z,6.50
2018-06-18T00:15:50.143Z,5.95
2018-06-18T00:18:19.223Z,6.37
2018-06-18T00:20:48.437Z,6.30
2018-06-18T00:23:17.378Z,6.40
2018-06-18T00:25:46.314Z,5.78
2018-06-18T00:28:15.146Z,6.42
2018-06-18T00:30:44.035Z,6.77
2018-06-18T00:33:12.883Z,6.90
2018-06-18T00:35:41.776Z,6.43
2018-06-18T00:38:11.863Z,7.25
2018-06-18T00:40:40.732Z,7.83
2018-06-18T00:43:09.594Z,8.07
2018-06-18T00:45:38.432Z,7.23
2018-06-18T00:48:07.408Z,7.53
2018-06-18T00:50:36.273Z,9.10
2018-06-18T00:53:05.195Z,7.90
2018-06-18T00:55:45.151Z,7.72
2018-06-18T00:58:14.081Z,8.25
2018-06-18T01:00:42.944Z,9.07
2018-06-18T01:03:11.922Z,8.17
2018-06-18T01:05:40.829Z,7.70
2018-06-18T01:27:41.086Z,7.95
2018-06-18T01:32:48.747Z,8.83
2018-06-18T01:35:17.612Z,9.30
2018-06-18T01:37:46.442Z,9.37
2018-06-18T01:40:15.330Z,10.00
2018-06-18T01:42:44.216Z,9.70
2018-06-18T01:45:13.081Z,9.03
2018-06-18T01:47:41.951Z,9.63
2018-06-18T01:50:10.840Z,11.20
2018-06-18T01:52:39.796Z,9.60
2018-06-18T01:55:08.763Z,10.68
2018-06-18T01:57:37.661Z,8.83
2018-06-18T02:00:06.537Z,9.50
2018-06-18T02:02:35.399Z,10.87
2018-06-18T02:05:04.376Z,9.57
2018-06-18T02:07:33.382Z,10.07
2018-06-18T02:10:02.316Z,11.50
2018-06-18T02:12:31.189Z,9.27
2018-06-18T02:15:00.082Z,10.87
2018-06-18T02:17:28.978Z,11.00
2018-06-18T02:19:57.883Z,10.60
2018-06-18T02:22:26.780Z,11.13
2018-06-18T02:24:56.136Z,10.95
2018-06-18T02:27:29.106Z,10.43
2018-06-18T02:30:03.109Z,10.40
2018-06-18T02:32:37.198Z,11.05
2018-06-18T02:35:11.186Z,11.08
2018-06-18T02:37:45.208Z,10.80
2018-06-18T02:40:19.209Z,10.97
2018-06-18T02:42:48.181Z,11.50
2018-06-18T02:45:17.066Z,12.00
2018-06-18T02:47:46.125Z,11.40
2018-06-18T02:50:15.213Z,12.90
2018-06-18T02:52:44.184Z,10.45
2018-06-18T02:55:13.271Z,11.20
2018-06-18T02:57:42.322Z,11.50
2018-06-18T03:00:11.253Z,12.20
2018-06-18T03:02:40.254Z,11.50
2018-06-18T03:05:09.213Z,12.95
2018-06-18T03:07:38.098Z,11.78
2018-06-18T03:10:07.064Z,12.30
2018-06-18T03:12:35.999Z,11.80
2018-06-18T03:15:06.669Z,12.88
2018-06-18T03:17:35.545Z,15.13
2018-06-18T03:20:09.657Z,14.30
2018-06-18T03:22:43.740Z,15.63
2018-06-18T03:25:17.711Z,14.73
2018-06-18T03:27:51.687Z,14.90
2018-06-18T03:30:20.490Z,15.00
2018-06-18T03:32:50.200Z,13.53
2018-06-18T03:35:19.009Z,16.05
2018-06-18T03:37:48.060Z,16.47
2018-06-18T03:40:16.927Z,17.80
2018-06-18T03:42:46.211Z,17.40
2018-06-18T03:45:19.018Z,17.43
2018-06-18T03:47:47.932Z,17.33
2018-06-18T03:50:16.890Z,18.90
2018-06-18T03:52:45.975Z,19.92
2018-06-18T03:55:18.154Z,20.00
2018-06-18T03:57:47.134Z,20.17
2018-06-18T04:00:16.054Z,22.17
2018-06-18T04:02:55.007Z,21.60
2018-06-18T04:05:29.066Z,19.47
2018-06-18T04:08:00.504Z,20.10
2018-06-18T04:10:37.953Z,21.40
2018-06-18T04:13:07.058Z,21.62
2018-06-18T04:15:35.902Z,22.03
2018-06-18T04:18:04.783Z,22.53
2018-06-18T04:20:37.048Z,21.30
2018-06-18T04:23:06.179Z,21.40
2018-06-18T04:25:35.030Z,21.53
2018-06-18T04:28:03.925Z,21.63
2018-06-18T04:30:33.094Z,21.83
2018-06-18T04:33:02.213Z,22.63
2018-06-18T04:35:31.166Z,22.60
2018-06-18T04:38:00.877Z,22.87
2018-06-18T04:40:30.037Z,21.63
2018-06-18T04:43:05.661Z,21.20
2018-06-18T04:45:40.860Z,20.43
2018-06-18T04:48:15.806Z,21.97
2018-06-18T04:50:50.294Z,21.35
2018-06-18T04:53:20.659Z,20.23
2018-06-18T04:55:49.820Z,20.50
2018-06-18T04:58:18.698Z,20.27
2018-06-18T05:00:54.973Z,20.70
2018-06-18T05:03:23.843Z,18.30
2018-06-18T05:05:52.729Z,19.57
2018-06-18T05:09:31.015Z,18.77
2018-06-18T05:12:00.828Z,19.67
2018-06-18T05:14:29.711Z,19.63
2018-06-18T05:16:58.646Z,20.13
2018-06-18T05:19:27.526Z,17.73
2018-06-18T05:21:56.474Z,19.85
2018-06-18T05:24:26.674Z,17.40
2018-06-18T05:26:57.028Z,17.37
2018-06-18T05:29:26.863Z,17.60
2018-06-18T05:31:55.773Z,16.25
2018-06-18T05:34:28.268Z,16.13
2018-06-18T05:36:59.537Z,16.03
2018-06-18T05:39:28.714Z,15.87
2018-06-18T05:41:57.606Z,15.87
2018-06-18T05:44:26.672Z,15.13
2018-06-18T05:46:56.357Z,15.20
2018-06-18T05:49:27.249Z,16.60
2018-06-18T05:51:58.196Z,15.77
2018-06-18T05:54:27.123Z,16.55
2018-06-18T05:56:57.090Z,13.96
2018-06-18T05:59:27.016Z,15.25
2018-06-18T06:01:56.599Z,15.43
2018-06-18T06:04:25.463Z,15.88
2018-06-18T06:06:54.871Z,15.83
2018-06-18T06:09:23.838Z,14.87
2018-06-18T06:11:53.266Z,14.83
2018-06-18T06:14:22.112Z,15.08
2018-06-18T06:16:51.230Z,14.37
2018-06-18T06:19:20.541Z,15.97
2018-06-18T06:21:49.462Z,15.35
2018-06-18T06:24:19.240Z,13.83
2018-06-18T06:26:48.077Z,15.30
2018-06-18T06:29:16.930Z,13.60
2018-06-18T06:31:45.881Z,12.30
2018-06-18T06:34:14.721Z,10.60
2018-06-18T06:36:43.570Z,11.40
2018-06-18T06:39:12.453Z,11.67
2018-06-18T06:41:44.042Z,9.98
2018-06-18T06:44:12.925Z,10.37
2018-06-18T06:46:41.833Z,10.20
2018-06-18T06:49:10.651Z,9.93
2018-06-18T06:51:39.538Z,10.17
2018-06-18T06:54:08.432Z,10.17
2018-06-18T06:56:37.289Z,10.43
2018-06-18T06:59:06.237Z,10.23
2018-06-18T07:01:35.118Z,9.17
2018-06-18T07:04:04.030Z,10.27
2018-06-18T07:06:32.880Z,10.93
2018-06-18T07:09:01.794Z,9.70
2018-06-18T07:11:30.663Z,11.40
2018-06-18T07:13:59.570Z,10.47
2018-06-18T07:16:28.538Z,9.77
2018-06-18T07:18:57.432Z,9.00
2018-06-18T07:21:26.294Z,9.10
2018-06-18T07:23:55.724Z,10.05
2018-06-18T07:26:24.669Z,9.05
2018-06-18T07:28:53.732Z,8.95
2018-06-18T07:31:22.616Z,7.85
2018-06-18T07:33:51.507Z,8.55
2018-06-18T07:36:20.381Z,7.80
2018-06-18T07:38:49.243Z,7.33
2018-06-18T07:41:18.120Z,6.33
2018-06-18T07:43:47.003Z,6.90
2018-06-18T07:46:15.907Z,7.57
2018-06-18T07:48:44.782Z,5.70
2018-06-18T07:51:13.632Z,5.87
2018-06-18T07:53:42.515Z,6.20
2018-06-18T07:56:11.421Z,5.13
2018-06-18T07:58:40.304Z,5.73
2018-06-18T08:01:09.211Z,5.37
2018-06-18T08:03:38.131Z,5.00
2018-06-18T08:06:07.016Z,4.37
2018-06-18T08:08:35.913Z,4.33
2018-06-18T08:11:04.809Z,4.17
2018-06-18T08:13:33.654Z,4.67
2018-06-18T08:16:02.496Z,3.90
2018-06-18T08:18:31.974Z,4.93
2018-06-18T08:21:00.801Z,4.47
2018-06-18T08:23:29.717Z,3.77
2018-06-18T08:25:58.519Z,4.10
2018-06-18T08:28:27.412Z,3.65
2018-06-18T08:30:56.277Z,3.53
2018-06-18T08:33:25.148Z,4.27
2018-06-18T08:35:54.115Z,3.10
2018-06-18T08:38:22.964Z,4.65
2018-06-18T08:40:51.850Z,4.13
2018-06-18T08:43:20.736Z,4.23
2018-06-18T08:45:49.756Z,4.27
2018-06-18T08:48:23.849Z,4.40
2018-06-18T08:50:57.827Z,4.50
2018-06-18T08:53:31.865Z,4.47
2018-06-18T08:57:09.789Z,3.73
2018-06-18T08:59:43.924Z,5.60
2018-06-18T09:02:12.834Z,4.57
2018-06-18T09:04:49.670Z,5.10
2018-06-18T09:07:22.590Z,5.37
2018-06-18T09:09:51.454Z,5.77
2018-06-18T09:12:21.180Z,4.80
2018-06-18T09:14:50.011Z,5.45
2018-06-18T09:17:18.894Z,5.07
2018-06-18T09:19:47.754Z,5.07
2018-06-18T09:22:16.559Z,4.70
2018-06-18T09:24:45.409Z,4.90
2018-06-18T09:27:15.359Z,5.57
2018-06-18T09:29:49.433Z,5.83
2018-06-18T09:32:18.317Z,5.55
2018-06-18T09:34:47.186Z,4.95
2018-06-18T09:37:16.037Z,5.60
2018-06-18T09:39:44.908Z,5.57
2018-06-18T09:42:13.719Z,5.30
2018-06-18T09:44:42.567Z,5.90
2018-06-18T09:47:11.394Z,6.20
2018-06-18T09:49:45.503Z,5.23
2018-06-18T09:52:23.016Z,5.30
2018-06-18T09:54:57.135Z,5.80
2018-06-18T09:57:31.245Z,6.30
2018-06-18T10:00:04.888Z,4.80
2018-06-18T10:02:33.750Z,5.00
2018-06-18T10:05:02.574Z,6.27
2018-06-18T10:07:31.423Z,6.30
2018-06-18T10:10:00.324Z,7.03
2018-06-18T10:12:29.195Z,9.40
2018-06-18T10:14:58.048Z,10.33
2018-06-18T10:17:26.904Z,11.25
2018-06-18T10:19:55.829Z,10.77
2018-06-18T10:22:24.650Z,11.00
2018-06-18T10:24:53.680Z,9.93
2018-06-18T10:27:22.601Z,11.97
2018-06-18T10:29:51.496Z,11.50
2018-06-18T10:32:25.436Z,11.10
2018-06-18T10:34:59.507Z,10.83
2018-06-18T10:37:33.488Z,10.25
2018-06-18T10:40:07.542Z,11.73
2018-06-18T10:42:41.577Z,11.40
2018-06-18T10:45:10.415Z,12.17
2018-06-18T10:47:39.273Z,10.55
2018-06-18T10:50:08.124Z,11.03
2018-06-18T10:52:36.933Z,8.77
2018-06-18T10:55:05.858Z,10.00
2018-06-18T10:57:34.858Z,10.83
2018-06-18T11:00:04.313Z,10.57
2018-06-18T11:02:33.168Z,10.10
2018-06-18T11:05:02.135Z,9.37
2018-06-18T11:07:31.333Z,10.23
2018-06-18T11:10:00.182Z,10.73
2018-06-18T11:12:29.011Z,9.30
2018-06-18T11:14:57.927Z,7.80
2018-06-18T11:17:32.067Z,8.90
2018-06-18T11:20:06.050Z,9.10
2018-06-18T11:22:39.915Z,8.30
2018-06-18T11:25:14.032Z,8.13
2018-06-18T11:27:42.914Z,9.07
2018-06-18T11:30:11.825Z,9.23
2018-06-18T11:32:40.704Z,9.58
2018-06-18T11:35:09.537Z,10.33
2018-06-18T11:37:38.394Z,11.53
2018-06-18T11:40:07.342Z,12.57
2018-06-18T11:42:36.158Z,13.50
2018-06-18T11:45:05.069Z,11.90
2018-06-18T11:47:33.994Z,10.50
2018-06-18T11:50:02.825Z,10.20
2018-06-18T11:52:31.856Z,10.10
2018-06-18T11:55:00.775Z,10.63
2018-06-18T11:57:29.613Z,10.72
2018-06-18T12:00:03.658Z,10.50
2018-06-18T12:02:37.794Z,8.90
2018-06-18T12:05:11.918Z,9.90
2018-06-18T12:07:45.883Z,8.33
2018-06-18T12:10:14.761Z,6.97
2018-06-18T12:12:43.589Z,7.03
2018-06-18T12:15:12.476Z,7.10
2018-06-18T12:17:41.414Z,7.93
2018-06-18T12:20:10.285Z,6.97
2018-06-18T12:22:39.152Z,7.12
2018-06-18T12:25:08.033Z,7.43
2018-06-18T12:27:37.004Z,8.10
2018-06-18T12:30:05.942Z,7.60
2018-06-18T12:32:34.805Z,6.50
2018-06-18T12:35:03.641Z,6.47
2018-06-18T12:37:32.468Z,6.63
2018-06-18T12:40:01.307Z,7.93
2018-06-18T12:42:30.125Z,7.60
2018-06-18T12:45:04.072Z,6.70
2018-06-18T12:47:38.055Z,6.37
2018-06-18T12:50:12.136Z,8.00
2018-06-18T12:52:46.180Z,7.57
2018-06-18T12:55:20.278Z,9.20
2018-06-18T12:57:49.221Z,8.50
2018-06-18T13:00:18.102Z,8.30
2018-06-18T13:02:52.892Z,8.48
2018-06-18T13:05:21.813Z,9.23
2018-06-18T13:07:50.705Z,9.40
2018-06-18T13:10:19.564Z,9.20
2018-06-18T13:12:48.461Z,9.83
2018-06-18T13:15:17.307Z,9.30
2018-06-18T13:17:46.132Z,9.40
2018-06-18T13:20:15.116Z,9.90
2018-06-18T13:22:43.991Z,9.15
2018-06-18T13:25:12.832Z,9.30
2018-06-18T13:27:46.735Z,7.93
2018-06-18T13:30:15.645Z,8.37
2018-06-18T13:32:44.583Z,7.92
2018-06-18T13:35:13.427Z,7.17
2018-06-18T13:37:47.379Z,7.10
2018-06-18T13:40:21.454Z,6.53
2018-06-18T13:42:55.581Z,7.67
2018-06-18T13:45:29.616Z,8.37
2018-06-18T13:48:03.579Z,7.45
2018-06-18T13:50:32.474Z,7.70
2018-06-18T13:53:01.315Z,8.07
2018-06-18T13:55:30.192Z,8.37
2018-06-18T13:57:59.099Z,6.40
2018-06-18T14:00:27.959Z,7.92
2018-06-18T14:02:56.843Z,7.97
2018-06-18T14:05:25.675Z,7.92
2018-06-18T14:07:54.503Z,7.15
2018-06-18T14:10:23.387Z,5.97
2018-06-18T14:12:52.196Z,7.20
2018-06-18T14:15:21.041Z,6.00
2018-06-18T14:17:49.876Z,7.15
2018-06-18T14:20:23.392Z,7.00
2018-06-18T14:22:52.634Z,8.10
2018-06-18T14:25:21.522Z,9.17
2018-06-18T14:27:50.359Z,9.17
2018-06-18T14:30:24.509Z,7.60
2018-06-18T14:32:58.551Z,10.33
2018-06-18T14:35:32.566Z,10.33
2018-06-18T14:38:06.647Z,9.90
2018-06-18T14:40:35.500Z,12.37
2018-06-18T14:43:04.370Z,10.27
2018-06-18T14:45:33.299Z,11.13
2018-06-18T14:48:02.098Z,10.87
2018-06-18T14:50:30.955Z,10.60
2018-06-18T14:52:59.864Z,9.73
2018-06-18T14:55:28.773Z,10.40
2018-06-18T14:57:57.770Z,11.87
2018-06-18T15:00:29.424Z,11.90
2018-06-18T15:02:58.414Z,13.57
2018-06-18T15:05:30.170Z,11.50
2018-06-18T15:07:59.017Z,11.50
2018-06-18T15:10:33.007Z,13.73
2018-06-18T15:13:02.104Z,9.50
2018-06-18T15:15:36.101Z,11.00
2018-06-18T15:18:05.087Z,10.35
2018-06-18T15:20:33.926Z,13.03
2018-06-18T15:23:04.417Z,12.20
2018-06-18T15:25:39.487Z,11.35
2018-06-18T15:28:08.735Z,12.03
2018-06-18T15:30:37.529Z,12.20
2018-06-18T15:33:06.315Z,11.67
2018-06-18T15:35:35.184Z,11.23
2018-06-18T15:38:04.011Z,9.60
2018-06-18T15:40:32.869Z,9.90
2018-06-18T15:43:01.712Z,10.10
2018-06-18T15:45:30.708Z,10.73
2018-06-18T15:47:59.555Z,9.57
2018-06-18T15:50:28.430Z,9.07
2018-06-18T15:52:57.414Z,8.60
2018-06-18T15:55:26.576Z,9.30
2018-06-18T15:57:55.592Z,8.20
2018-06-18T16:00:32.432Z,9.20
2018-06-18T16:03:04.783Z,7.50
2018-06-18T16:05:33.655Z,7.40
2018-06-18T16:08:02.484Z,8.20
2018-06-18T16:10:31.373Z,8.43
2018-06-18T16:13:00.268Z,7.57
2018-06-18T16:15:29.285Z,7.57
2018-06-18T16:17:58.217Z,7.57
2018-06-18T16:20:27.105Z,7.20
2018-06-18T16:22:57.707Z,7.30
2018-06-18T16:25:26.692Z,7.00
2018-06-18T16:27:55.587Z,7.83
2018-06-18T16:30:24.461Z,7.73
2018-06-18T16:32:53.345Z,8.40
2018-06-18T16:35:25.747Z,7.72
2018-06-18T16:37:54.624Z,6.10
2018-06-18T16:40:23.465Z,5.83
2018-06-18T16:42:52.376Z,5.95
2018-06-18T16:45:21.337Z,8.18
2018-06-18T16:47:50.278Z,7.10
2018-06-18T16:50:19.169Z,7.20
2018-06-18T16:52:48.080Z,7.10
2018-06-18T16:55:19.104Z,6.00
2018-06-18T16:57:48.135Z,6.30
2018-06-18T17:00:17.084Z,6.47
2018-06-18T17:02:46.343Z,6.50
2018-06-18T17:05:17.629Z,7.00
2018-06-18T17:07:47.017Z,6.20
2018-06-18T17:10:16.633Z,6.43
2018-06-18T17:12:46.781Z,6.07
2018-06-18T17:15:15.672Z,6.10
2018-06-18T17:17:45.110Z,5.40
2018-06-18T17:20:14.040Z,5.80
2018-06-18T17:22:42.940Z,6.20
2018-06-18T17:25:11.844Z,4.85
2018-06-18T17:27:40.738Z,5.33
2018-06-18T17:30:09.661Z,4.17
2018-06-18T17:32:38.634Z,5.37
2018-06-18T17:35:08.659Z,5.77
2018-06-18T17:37:37.613Z,6.17
2018-06-18T17:40:06.575Z,5.83
2018-06-18T17:42:35.816Z,5.23
2018-06-18T17:45:04.779Z,6.57
2018-06-18T17:47:34.055Z,6.07
2018-06-18T17:50:02.976Z,7.00
2018-06-18T17:52:33.076Z,6.90
2018-06-18T17:55:01.979Z,6.83
2018-06-18T17:57:31.840Z,6.87
2018-06-18T18:00:01.710Z,6.78
2018-06-18T18:02:30.639Z,6.53
2018-06-18T18:05:00.951Z,6.90
2018-06-18T18:07:30.134Z,6.90
2018-06-18T18:09:59.576Z,6.47
2018-06-18T18:12:28.500Z,6.10
2018-06-18T18:14:57.354Z,6.47
2018-06-18T18:17:26.218Z,6.87
2018-06-18T18:19:55.073Z,6.27
2018-06-18T18:22:23.964Z,7.07
2018-06-18T18:24:54.384Z,6.57
2018-06-18T18:27:23.381Z,6.70
2018-06-18T18:29:52.532Z,6.30
2018-06-18T18:32:22.288Z,7.10
2018-06-18T18:34:51.172Z,5.83
2018-06-18T18:37:20.153Z,6.47
2018-06-18T18:39:49.178Z,6.13
2018-06-18T18:42:18.125Z,5.80
2018-06-18T18:44:47.045Z,6.10
2018-06-18T18:47:15.969Z,5.57
2018-06-18T18:49:44.874Z,6.13
2018-06-18T18:52:13.777Z,5.90
2018-06-18T18:55:59.278Z,8.40
2018-06-18T18:59:35.769Z,11.70
2018-06-18T19:02:04.735Z,11.93
2018-06-18T19:04:41.781Z,11.00
2018-06-18T19:07:10.850Z,11.90
2018-06-18T19:09:47.588Z,13.00
2018-06-18T19:12:16.511Z,13.20
2018-06-18T19:14:48.123Z,13.57
2018-06-18T19:17:17.052Z,12.80
2018-06-18T19:20:01.594Z,14.13
2018-06-18T19:22:30.849Z,12.95
2018-06-18T19:25:00.082Z,13.03
2018-06-18T19:27:28.987Z,13.73
2018-06-18T19:29:57.925Z,14.78
2018-06-18T19:32:27.901Z,16.10
2018-06-18T19:34:56.863Z,17.00
2018-06-18T19:37:25.884Z,14.97
2018-06-18T19:39:54.725Z,14.83
2018-06-18T19:42:23.579Z,14.53
2018-06-18T19:44:52.473Z,16.40
2018-06-18T19:47:29.173Z,16.23
2018-06-18T19:49:58.059Z,15.90
2018-06-18T19:52:27.016Z,18.43
2018-06-18T19:55:00.046Z,18.10
2018-06-18T19:57:28.879Z,16.23
2018-06-18T19:59:57.736Z,16.50
2018-06-18T20:02:26.600Z,14.80
2018-06-18T20:04:55.453Z,17.60
2018-06-18T20:07:25.530Z,16.30
2018-06-18T20:09:54.373Z,17.13
2018-06-18T20:12:23.219Z,16.43
2018-06-18T20:14:52.090Z,18.20
2018-06-18T20:17:20.920Z,17.15
2018-06-18T20:19:49.810Z,15.33
2018-06-18T20:22:18.703Z,17.97
2018-06-18T20:24:49.037Z,17.50
2018-06-18T20:27:17.898Z,19.73
2018-06-18T20:29:46.823Z,17.70
2018-06-18T20:32:15.696Z,16.80
2018-06-18T20:34:44.940Z,17.33
2018-06-18T20:37:14.044Z,16.77
2018-06-18T20:39:42.990Z,17.40
2018-06-18T20:42:11.836Z,17.60
2018-06-18T20:44:40.703Z,17.40
2018-06-18T20:47:09.630Z,18.50
2018-06-18T20:49:38.519Z,16.95
2018-06-18T20:52:07.387Z,16.07
2018-06-18T20:54:36.268Z,15.73
2018-06-18T20:57:05.180Z,16.67
2018-06-18T20:59:34.084Z,16.37
2018-06-18T21:02:02.922Z,18.50
2018-06-18T21:04:32.042Z,17.30
2018-06-18T21:07:01.074Z,16.37
2018-06-18T21:09:30.005Z,17.20
2018-06-18T21:11:58.897Z,16.10
2018-06-18T21:14:27.783Z,17.20
2018-06-18T21:16:57.516Z,16.30
2018-06-18T21:19:28.957Z,15.70
2018-06-18T21:21:58.932Z,15.77
2018-06-18T21:24:28.550Z,16.17
2018-06-18T21:26:57.934Z,17.15
2018-06-18T21:29:27.772Z,14.70
2018-06-18T21:31:57.703Z,12.80
2018-06-18T21:34:27.468Z,15.17
2018-06-18T21:36:57.355Z,14.43
2018-06-18T21:39:27.586Z,15.80
2018-06-18T21:41:57.189Z,14.20
2018-06-18T21:44:29.973Z,13.30
2018-06-18T21:46:58.839Z,13.90
2018-06-18T21:49:27.768Z,13.93
2018-06-18T21:51:56.724Z,14.83
2018-06-18T21:54:25.639Z,15.30
2018-06-18T21:56:54.672Z,13.23
2018-06-18T21:59:23.566Z,15.28
2018-06-18T22:01:53.341Z,16.30
2018-06-18T22:04:22.235Z,16.02
2018-06-18T22:06:51.170Z,15.05
2018-06-18T22:09:21.654Z,15.40
2018-06-18T22:11:52.616Z,14.13
2018-06-18T22:14:21.757Z,15.30
2018-06-18T22:16:50.774Z,14.63
2018-06-18T22:19:19.601Z,15.37
2018-06-18T22:21:48.917Z,14.30
2018-06-18T22:24:17.803Z,14.97
2018-06-18T22:26:46.744Z,14.73
2018-06-18T22:29:16.331Z,14.38
2018-06-18T22:31:45.315Z,14.50
2018-06-18T22:34:14.295Z,14.97
2018-06-18T22:36:43.225Z,14.97
2018-06-18T22:39:13.292Z,15.30
2018-06-18T22:41:42.219Z,15.47
2018-06-18T22:44:11.535Z,15.13
2018-06-18T22:46:40.477Z,16.63
2018-06-18T22:49:09.455Z,16.00
2018-06-18T22:51:38.405Z,15.90
2018-06-18T22:54:07.305Z,16.23
2018-06-18T22:56:36.225Z,16.10
2018-06-18T22:59:05.304Z,15.73
2018-06-18T23:01:34.376Z,17.40
2018-06-18T23:04:03.307Z,17.67
2018-06-18T23:06:32.308Z,16.10
2018-06-18T23:09:06.477Z,16.85
2018-06-18T23:11:35.601Z,15.73
2018-06-18T23:14:06.198Z,18.50
2018-06-18T23:16:35.191Z,14.58
2018-06-18T23:19:04.153Z,15.20
2018-06-18T23:21:33.166Z,14.43
2018-06-18T23:24:02.110Z,14.37
2018-06-18T23:26:31.065Z,16.03
2018-06-18T23:29:03.214Z,17.20
2018-06-18T23:31:32.173Z,16.05
2018-06-18T23:34:01.172Z,15.20
2018-06-18T23:36:30.117Z,16.00
2018-06-18T23:38:59.040Z,14.40
2018-06-18T23:41:29.529Z,15.00
2018-06-18T23:43:58.403Z,16.50
2018-06-18T23:46:27.366Z,15.77
2018-06-18T23:48:56.287Z,15.37
2018-06-18T23:51:25.229Z,16.53
2018-06-18T23:53:54.160Z,15.03
2018-06-18T23:56:23.091Z,17.03
2018-06-18T23:58:52.066Z,15.63
